Time;durP1;ratioP1;P1;durP2;ratioP2;P2;SDS_P1;SDS_P2;PMS_P1;PMS_P2;Temp;Humidity;BMP_temperature;BMP_pressure;BME280_temperature;BME280_humidity;BME280_pressure;Samples;Min_cycle;Max_cycle;Signal;HPM_P1;HPM_P2
2021/12/01 00:00:58;;;;;;;0.60;0.60;;;;;;;3.81;95.34;98336.78;4915202;29;20059;-69
2021/12/01 00:03:24;;;;;;;0.70;0.70;;;;;;;3.91;95.45;98336.81;4915435;29;20115;-69
2021/12/01 00:05:50;;;;;;;0.50;0.50;;;;;;;3.82;96.28;98337.66;4915481;29;20016;-69
2021/12/01 00:08:16;;;;;;;0.50;0.50;;;;;;;3.86;96.61;98329.97;4917502;29;20044;-69
2021/12/01 00:10:42;;;;;;;0.57;0.57;;;;;;;3.88;96.14;98330.00;4919053;29;20028;-69
2021/12/01 00:13:10;;;;;;;0.50;0.50;;;;;;;3.86;95.94;98329.97;4919009;29;20448;-69
2021/12/01 00:15:36;;;;;;;0.50;0.50;;;;;;;3.88;96.38;98321.47;4919319;29;20051;-69
2021/12/01 00:18:02;;;;;;;0.55;0.55;;;;;;;3.81;96.53;98311.19;4918937;29;20083;-69
2021/12/01 00:20:27;;;;;;;0.47;0.47;;;;;;;3.77;96.50;98314.59;4918788;29;20028;-69
2021/12/01 00:22:53;;;;;;;0.55;0.55;;;;;;;3.81;95.86;98311.19;4918945;29;20024;-70
2021/12/01 00:25:24;;;;;;;0.52;0.52;;;;;;;3.80;97.60;98314.59;4918910;29;20024;-71
2021/12/01 00:27:50;;;;;;;1.10;1.10;;;;;;;3.83;98.07;98312.06;4918821;29;20028;-70
2021/12/01 00:30:17;;;;;;;0.40;0.40;;;;;;;3.74;97.79;98312.03;4918188;29;20170;-70
2021/12/01 00:32:43;;;;;;;0.47;0.47;;;;;;;3.81;98.01;98303.50;4918734;29;20381;-69
2021/12/01 00:35:09;;;;;;;0.57;0.57;;;;;;;3.78;97.18;98300.94;4918210;29;20494;-69
2021/12/01 00:37:36;;;;;;;0.65;0.65;;;;;;;3.79;97.33;98302.66;4918739;29;20036;-69
2021/12/01 00:40:03;;;;;;;0.55;0.55;;;;;;;3.80;96.21;98309.47;4918412;29;20160;-69
2021/12/01 00:42:28;;;;;;;0.50;0.50;;;;;;;3.82;99.43;98312.91;4918445;29;20024;-69
2021/12/01 00:45:00;;;;;;;0.70;0.70;;;;;;;3.83;98.92;98308.63;4918537;29;20386;-69
2021/12/01 00:47:42;;;;;;;0.50;0.50;;;;;;;3.85;99.53;98307.78;4918712;29;20082;-69
2021/12/01 00:50:09;;;;;;;0.45;0.45;;;;;;;3.84;98.05;98290.69;4918368;29;20445;-69
2021/12/01 00:52:35;;;;;;;0.50;0.50;;;;;;;3.82;99.81;98284.72;4909085;29;20202;-69
2021/12/01 00:55:00;;;;;;;0.50;0.50;;;;;;;3.85;100.00;98282.16;4918254;29;20037;-69
2021/12/01 00:57:25;;;;;;;0.50;0.50;;;;;;;3.85;99.07;98278.72;4918400;29;20024;-69
2021/12/01 00:59:50;;;;;;;0.82;0.82;;;;;;;3.84;97.60;98275.31;4918071;29;20016;-69
2021/12/01 05:15:42;;;;;;;0.52;0.52;;;;;;;5.19;86.56;97874.44;5753140;23;20048;-72
2021/12/01 05:18:08;;;;;;;0.60;0.60;;;;;;;5.22;87.44;97874.44;4899198;29;20028;-72
2021/12/01 05:20:34;;;;;;;0.60;0.60;;;;;;;5.19;86.80;97861.63;4899095;29;20104;-72
2021/12/01 05:22:59;;;;;;;0.90;0.90;;;;;;;5.28;87.07;97853.81;4899184;29;20119;-72
2021/12/01 05:25:24;;;;;;;0.43;0.43;;;;;;;5.28;87.10;97858.94;4898887;29;20115;-73
2021/12/01 05:27:50;;;;;;;0.40;0.40;;;;;;;5.28;85.92;97848.66;4899089;29;20028;-72
2021/12/01 05:30:15;;;;;;;0.50;0.50;;;;;;;5.32;86.17;97844.34;4913313;23;20051;-70
2021/12/01 05:32:41;;;;;;;0.40;0.40;;;;;;;5.36;85.11;97851.97;4899169;29;20028;-70
2021/12/01 05:35:06;;;;;;;0.43;0.43;;;;;;;5.36;85.85;97846.84;4898901;29;20108;-70
2021/12/01 05:37:32;;;;;;;0.65;0.65;;;;;;;5.39;85.42;97849.38;4898964;29;20040;-70
2021/12/01 05:39:57;;;;;;;0.50;0.50;;;;;;;5.39;85.38;97840.81;4898570;29;20036;-70
2021/12/01 05:42:22;;;;;;;0.32;0.32;;;;;;;5.50;85.31;97843.25;4898719;29;20111;-70
2021/12/01 05:44:48;;;;;;;0.43;0.43;;;;;;;5.48;85.30;97839.88;4898991;29;20025;-70
2021/12/01 05:47:14;;;;;;;0.40;0.40;;;;;;;5.55;84.57;97836.34;4898814;29;20028;-70
2021/12/01 05:49:44;;;;;;;0.73;0.73;;;;;;;5.54;84.43;97838.06;4898577;29;20020;-70
2021/12/01 05:52:09;;;;;;;;;;;;;;;5.54;85.00;97834.63;4898896;29;20032;-70
2021/12/01 05:54:36;;;;;;;0.43;0.43;;;;;;;5.42;86.60;97827.97;4898569;29;19962;-70
2021/12/01 05:57:01;;;;;;;0.50;0.50;;;;;;;5.41;85.22;97819.41;4898620;29;20394;-70
2021/12/01 05:59:27;;;;;;;1.15;1.05;;;;;;;5.48;87.17;97814.19;4898141;29;20028;-70
2021/12/01 06:01:52;;;;;;;0.50;0.50;;;;;;;5.45;85.90;97809.06;4890554;29;20033;-70
2021/12/01 06:04:17;;;;;;;0.40;0.40;;;;;;;5.51;85.65;97799.59;4898378;29;20095;-70
2021/12/01 06:06:43;;;;;;;0.40;0.40;;;;;;;5.56;85.12;97807.19;4898161;29;20474;-70
2021/12/01 06:09:08;;;;;;;0.40;0.40;;;;;;;5.62;85.93;97799.44;4898081;29;20490;-70
2021/12/01 06:11:33;;;;;;;0.50;0.50;;;;;;;5.46;87.13;97800.47;4898172;29;20056;-70
2021/12/01 06:13:59;;;;;;;0.40;0.40;;;;;;;5.59;86.54;97796.88;4898295;29;20401;-70
2021/12/01 06:16:24;;;;;;;0.60;0.60;;;;;;;5.68;87.08;97784.75;4898101;29;20470;-70
2021/12/01 06:18:51;;;;;;;0.50;0.50;;;;;;;5.79;86.54;97784.59;4898166;29;20031;-70
2021/12/01 06:21:16;;;;;;;0.50;0.50;;;;;;;5.68;87.36;97782.19;4897899;29;20036;-70
2021/12/01 06:23:42;;;;;;;0.40;0.40;;;;;;;5.72;86.22;97777.00;4898002;29;20032;-70
2021/12/01 06:26:08;;;;;;;0.50;0.50;;;;;;;5.75;86.61;97782.94;4898167;29;20474;-70
2021/12/01 06:28:33;;;;;;;0.50;0.50;;;;;;;5.76;86.87;97769.25;4897931;29;20028;-70
2021/12/01 06:30:59;;;;;;;0.52;0.52;;;;;;;5.73;86.96;97766.69;4891241;29;20032;-70
2021/12/01 06:33:24;;;;;;;1.17;1.17;;;;;;;5.72;87.67;97762.44;4896394;29;20565;-70
2021/12/01 06:35:51;;;;;;;1.05;0.75;;;;;;;5.80;88.60;97755.47;4897842;29;20502;-70
2021/12/01 06:38:17;;;;;;;0.50;0.50;;;;;;;5.80;88.53;97750.34;4897637;29;20028;-70
2021/12/01 06:40:43;;;;;;;0.80;0.80;;;;;;;5.73;86.71;97751.28;4897474;29;20060;-70
2021/12/01 06:43:09;;;;;;;0.50;0.50;;;;;;;5.86;87.22;97749.38;4897640;29;20035;-70
2021/12/01 06:45:34;;;;;;;0.43;0.43;;;;;;;5.92;85.06;97755.28;4897747;29;20427;-70
2021/12/01 06:47:59;;;;;;;0.40;0.40;;;;;;;5.93;86.49;97741.56;4897596;29;20659;-70
2021/12/01 06:50:25;;;;;;;1.65;1.55;;;;;;;5.96;87.24;97750.97;4897341;29;20103;-71
2021/12/01 06:52:50;;;;;;;0.68;0.68;;;;;;;5.97;87.04;97747.50;4897429;29;20483;-70
2021/12/01 06:55:16;;;;;;;0.40;0.40;;;;;;;5.82;86.60;97748.56;4897472;29;20036;-71
2021/12/01 06:57:41;;;;;;;0.50;0.50;;;;;;;5.80;87.00;97739.16;4897645;29;20036;-70
2021/12/01 07:00:11;;;;;;;0.43;0.43;;;;;;;5.87;86.22;97736.50;4897017;29;20386;-70
2021/12/01 07:02:36;;;;;;;0.50;0.50;;;;;;;5.88;86.19;97738.19;4889892;29;20031;-70
2021/12/01 07:05:02;;;;;;;0.57;0.57;;;;;;;5.87;86.78;97728.78;4897295;29;20032;-70
2021/12/01 07:07:28;;;;;;;0.50;0.50;;;;;;;5.87;87.38;97726.22;4897221;29;20020;-70
2021/12/01 07:09:54;;;;;;;0.47;0.47;;;;;;;5.88;85.97;97727.91;4897139;29;20163;-71
2021/12/01 07:12:19;;;;;;;0.50;0.50;;;;;;;5.95;86.95;97717.53;4897408;29;20379;-71
2021/12/01 07:14:45;;;;;;;0.80;0.80;;;;;;;5.96;86.39;97708.97;4897202;29;20044;-70
2021/12/01 07:17:10;;;;;;;0.40;0.40;;;;;;;5.78;87.86;97692.09;4896749;29;20039;-71
2021/12/01 07:19:36;;;;;;;0.40;0.40;;;;;;;6.10;82.75;97696.75;4896833;29;20055;-71
2021/12/01 07:22:01;;;;;;;0.40;0.40;;;;;;;6.17;82.27;97696.59;4897199;29;20519;-70
2021/12/01 07:24:29;;;;;;;0.80;0.80;;;;;;;6.25;81.92;97690.47;4897025;29;20044;-70
2021/12/01 07:26:55;;;;;;;0.50;0.50;;;;;;;6.32;81.43;97686.91;4897143;29;20062;-70
2021/12/01 07:29:20;;;;;;;0.30;0.30;;;;;;;6.39;81.28;97679.03;4896554;29;20512;-70
2021/12/01 07:31:46;;;;;;;0.60;0.60;;;;;;;6.40;79.78;97665.28;4889342;29;20032;-70
2021/12/01 07:34:12;;;;;;;0.50;0.50;;;;;;;6.42;80.66;97663.53;4897092;29;20043;-70
2021/12/01 07:36:37;;;;;;;0.40;0.40;;;;;;;6.48;79.98;97648.84;4896770;29;20032;-69
2021/12/01 07:39:03;;;;;;;0.50;0.50;;;;;;;6.64;78.84;97647.69;4896750;29;20044;-68
2021/12/01 07:41:28;;;;;;;0.40;0.40;;;;;;;6.69;79.23;97633.84;4896889;29;20028;-68
2021/12/01 07:43:54;;;;;;;0.40;0.40;;;;;;;6.64;79.60;97637.38;4896897;29;20028;-68
2021/12/01 07:46:19;;;;;;;0.40;0.40;;;;;;;6.64;78.45;97632.25;4896851;29;20029;-68
2021/12/01 07:48:45;;;;;;;0.40;0.40;;;;;;;6.75;77.49;97627.69;4896946;29;20049;-68
2021/12/01 07:51:10;;;;;;;0.40;0.40;;;;;;;6.87;76.03;97622.31;4896636;29;20039;-68
2021/12/01 07:53:35;;;;;;;0.40;0.40;;;;;;;6.89;77.40;97617.94;4896762;29;20036;-68
2021/12/01 07:56:02;;;;;;;0.45;0.45;;;;;;;6.89;76.77;97615.38;4896651;29;20048;-69
2021/12/01 07:58:28;;;;;;;0.60;0.60;;;;;;;6.86;77.65;97610.28;4911154;29;20028;-69
2021/12/01 08:00:54;;;;;;;3.40;0.77;;;;;;;6.94;76.87;97598.09;4890689;29;20069;-68
2021/12/01 08:03:19;;;;;;;0.40;0.40;;;;;;;7.02;75.92;97591.94;4895172;29;20107;-68
2021/12/01 08:05:44;;;;;;;0.40;0.40;;;;;;;7.03;74.84;97583.31;4896646;29;20036;-69
2021/12/01 08:08:10;;;;;;;0.40;0.40;;;;;;;7.05;75.71;97589.28;4896823;29;20111;-68
2021/12/01 08:10:36;;;;;;;0.40;0.40;;;;;;;7.09;75.56;97588.31;4896679;29;20104;-69
2021/12/01 08:13:04;;;;;;;0.47;0.47;;;;;;;7.14;74.94;97574.44;4896724;29;20503;-68
2021/12/01 08:15:29;;;;;;;0.50;0.50;;;;;;;7.27;75.40;97562.13;4896490;29;20497;-69
2021/12/01 08:17:54;;;;;;;0.40;0.40;;;;;;;7.29;74.46;97564.66;4896631;29;20029;-69
2021/12/01 08:20:21;;;;;;;0.40;0.40;;;;;;;7.19;74.71;97562.31;4896350;29;20032;-69
2021/12/01 08:22:46;;;;;;;0.30;0.30;;;;;;;7.26;74.43;97550.16;4896554;29;20052;-69
2021/12/01 08:25:12;;;;;;;0.55;0.55;;;;;;;7.32;73.58;97555.13;4896646;29;20107;-70
2021/12/01 08:27:38;;;;;;;0.50;0.50;;;;;;;7.44;73.63;97559.13;4896448;29;20157;-69
2021/12/01 08:30:05;;;;;;;0.40;0.40;;;;;;;7.51;72.92;97558.09;4899282;29;20123;-69
2021/12/01 08:32:30;;;;;;;0.40;0.40;;;;;;;7.52;73.63;97551.22;4892091;29;20463;-69
2021/12/01 08:34:55;;;;;;;0.60;0.60;;;;;;;7.42;73.89;97541.13;4899927;29;20103;-68
2021/12/01 08:37:21;;;;;;;0.40;0.40;;;;;;;7.48;73.02;97540.13;4886813;29;20043;-69
2021/12/01 08:39:48;;;;;;;0.50;0.50;;;;;;;7.40;73.54;97527.47;4918757;29;20477;-68
2021/12/01 08:42:18;;;;;;;0.73;0.73;;;;;;;7.53;74.68;97532.28;4918873;29;20039;-68
2021/12/01 08:44:45;;;;;;;;;;;;;;;7.42;74.03;97524.84;4919142;29;20079;-69
2021/12/01 08:47:16;;;;;;;0.47;0.47;;;;;;;7.67;73.20;97525.03;4918394;29;20029;-68
2021/12/01 08:49:42;;;;;;;1.67;1.58;;;;;;;7.69;73.68;97512.97;4918372;29;20036;-68
2021/12/01 08:52:08;;;;;;;0.30;0.30;;;;;;;7.67;73.11;97514.72;4918550;29;20020;-69
2021/12/01 08:54:34;;;;;;;0.40;0.40;;;;;;;7.72;72.83;97502.56;4918394;29;20497;-68
2021/12/01 08:56:59;;;;;;;0.40;0.40;;;;;;;7.77;72.44;97500.69;4918532;29;20028;-68
2021/12/01 08:59:25;;;;;;;0.40;0.40;;;;;;;7.93;72.62;97499.41;4918168;29;20553;-69
2021/12/01 09:01:50;;;;;;;0.50;0.50;;;;;;;7.91;71.97;97490.84;4912956;29;20108;-69
2021/12/01 09:04:16;;;;;;;0.43;0.43;;;;;;;7.91;72.28;97483.09;4899470;29;20025;-69
2021/12/01 09:06:41;;;;;;;0.40;0.40;;;;;;;8.22;71.51;97477.09;4913961;29;20033;-69
2021/12/01 09:09:07;;;;;;;0.30;0.30;;;;;;;8.46;69.82;97466.06;4899240;29;20039;-68
2021/12/01 09:11:32;;;;;;;0.50;0.50;;;;;;;8.88;68.97;97473.31;4899213;29;20036;-68
2021/12/01 11:25:25;;;;;;;0.75;0.52;;;;;;;9.87;69.69;97171.59;5089599;28;20735;-68
2021/12/01 11:27:50;;;;;;;0.40;0.40;;;;;;;9.67;70.63;97168.94;5089579;28;20058;-69
2021/12/01 11:30:16;;;;;;;0.85;0.63;;;;;;;9.59;70.34;97160.66;5096213;22;20154;-70
2021/12/01 11:32:42;;;;;;;0.30;0.30;;;;;;;9.51;72.43;97159.22;5031264;28;20047;-70
2021/12/01 11:35:08;;;;;;;0.40;0.40;;;;;;;9.47;72.15;97157.66;5049290;28;20029;-70
2021/12/01 11:37:34;;;;;;;1.20;1.00;;;;;;;9.41;72.92;97155.31;5049119;28;20501;-69
2021/12/01 11:40:00;;;;;;;1.27;0.73;;;;;;;9.34;73.39;97140.97;5031106;28;20032;-70
2021/12/01 11:42:25;;;;;;;0.82;0.82;;;;;;;9.36;72.93;97143.47;5031340;28;20021;-72
2021/12/01 11:44:53;;;;;;;0.43;0.43;;;;;;;9.37;72.85;97133.06;5045498;28;20034;-73
2021/12/01 11:47:18;;;;;;;0.40;0.40;;;;;;;9.38;73.30;97133.91;5020588;28;20483;-72
2021/12/01 11:49:44;;;;;;;0.30;0.30;;;;;;;9.63;71.80;97120.88;5048702;28;20021;-72
2021/12/01 11:52:10;;;;;;;0.52;0.52;;;;;;;9.65;70.64;97119.88;5031025;28;20017;-72
2021/12/01 11:54:43;;;;;;;0.35;0.35;;;;;;;9.79;70.47;97116.72;5048897;28;20104;-72
2021/12/01 11:57:09;;;;;;;0.30;0.30;;;;;;;10.00;70.37;97110.63;5048817;28;20021;-72
2021/12/01 11:59:44;;;;;;;0.40;0.40;;;;;;;9.89;70.50;97102.50;5044477;28;20025;-72
2021/12/01 12:02:15;;;;;;;0.35;0.35;;;;;;;9.80;70.42;97100.28;5040451;28;20024;-72
2021/12/01 12:04:43;;;;;;;0.32;0.32;;;;;;;9.85;70.59;97090.59;5048597;28;20385;-72
2021/12/01 12:07:26;;;;;;;0.68;0.68;;;;;;;9.62;70.91;97088.13;5048677;28;20060;-72
2021/12/01 12:10:13;;;;;;;0.40;0.40;;;;;;;9.63;71.71;97084.66;5030515;28;20060;-72
2021/12/01 12:13:05;;;;;;;3.63;1.30;;;;;;;9.64;71.53;97081.16;5048666;28;20098;-71
2021/12/01 12:15:47;;;;;;;0.50;0.50;;;;;;;9.62;72.50;97076.06;5008632;28;20026;-73
2021/12/01 12:18:38;;;;;;;0.40;0.40;;;;;;;9.52;72.91;97073.03;5040179;28;20083;-73
2021/12/01 12:21:38;;;;;;;0.30;0.30;;;;;;;9.43;73.19;97068.22;5023907;28;20022;-73
2021/12/01 12:24:17;;;;;;;0.35;0.35;;;;;;;9.56;73.34;97063.38;5008611;28;20499;-73
2021/12/01 12:26:49;;;;;;;0.30;0.30;;;;;;;9.58;72.91;97055.56;4991265;28;20395;-73
2021/12/01 12:29:20;;;;;;;0.40;0.40;;;;;;;9.68;72.77;97049.09;5013358;28;20053;-73
2021/12/01 12:31:48;;;;;;;0.40;0.40;;;;;;;9.73;71.67;97034.22;5039812;28;20051;-73
2021/12/01 12:34:16;;;;;;;6.63;2.47;;;;;;;9.78;72.02;97046.06;5047907;28;20099;-71
2021/12/01 12:36:44;;;;;;;0.40;0.40;;;;;;;9.72;72.56;97032.56;5034655;28;20025;-71
2021/12/01 12:39:17;;;;;;;0.98;0.50;;;;;;;9.70;72.75;97024.84;5034419;28;20048;-71
2021/12/01 12:41:54;;;;;;;0.50;0.50;;;;;;;9.66;73.14;97025.03;5034408;28;20509;-71
2021/12/01 12:44:42;;;;;;;0.40;0.40;;;;;;;9.61;72.43;97014.06;5034522;28;20029;-71
2021/12/01 12:47:17;;;;;;;0.43;0.43;;;;;;;9.70;73.49;97005.91;5034323;28;20037;-71
2021/12/01 12:49:48;;;;;;;0.30;0.30;;;;;;;9.70;72.62;97008.50;5026546;28;20025;-73
2021/12/01 12:52:26;;;;;;;0.35;0.35;;;;;;;9.79;72.47;96997.75;5026123;28;20075;-73
2021/12/01 12:55:06;;;;;;;0.30;0.30;;;;;;;10.01;72.40;97003.69;5034232;28;20021;-73
2021/12/01 12:57:51;;;;;;;0.30;0.30;;;;;;;10.04;71.08;96988.00;5016502;28;20022;-73
2021/12/01 13:00:33;;;;;;;0.50;0.50;;;;;;;10.01;72.47;97002.84;5029110;28;20033;-73
2021/12/01 13:03:22;;;;;;;0.30;0.30;;;;;;;10.02;72.09;96976.88;5028617;28;20037;-73
2021/12/01 13:05:47;;;;;;;0.30;0.30;;;;;;;9.93;72.99;96984.22;5033914;28;20034;-73
2021/12/01 13:08:28;;;;;;;0.30;0.30;;;;;;;9.75;73.61;96972.94;5034101;28;20041;-73
2021/12/01 13:10:58;;;;;;;0.40;0.40;;;;;;;9.72;74.00;96970.50;5016172;28;20486;-73
2021/12/01 13:13:29;;;;;;;0.40;0.40;;;;;;;9.66;74.42;96976.75;5016254;28;20021;-72
2021/12/01 13:15:55;;;;;;;0.30;0.30;;;;;;;9.67;74.33;96949.13;5033880;28;20033;-75
2021/12/01 13:18:22;;;;;;;0.40;0.40;;;;;;;9.56;74.25;96949.59;5033606;28;20025;-74
2021/12/01 13:20:58;;;;;;;1.00;0.93;;;;;;;9.47;74.94;96957.75;5021995;28;20034;-74
2021/12/01 13:23:40;;;;;;;0.70;0.50;;;;;;;9.38;75.17;96935.75;5032148;28;20438;-74
2021/12/01 13:26:11;;;;;;;0.40;0.40;;;;;;;9.30;75.16;96924.91;5016162;28;20090;-73
2021/12/01 13:28:46;;;;;;;0.38;0.38;;;;;;;9.36;75.49;96924.63;5033918;28;20025;-73
2021/12/01 13:31:14;;;;;;;1.33;1.10;;;;;;;9.31;75.63;96923.97;5018116;28;20036;-73
2021/12/01 13:34:07;;;;;;;0.40;0.40;;;;;;;9.29;75.79;96920.63;4977186;28;20022;-73
2021/12/01 13:36:45;;;;;;;0.40;0.40;;;;;;;9.28;75.40;96924.09;4994415;28;20022;-74
2021/12/01 13:39:17;;;;;;;0.30;0.30;;;;;;;9.25;76.53;96924.25;4994167;28;20054;-71
2021/12/01 13:41:50;;;;;;;0.40;0.40;;;;;;;9.17;75.73;96921.16;4976931;28;20395;-72
2021/12/01 13:44:19;;;;;;;0.57;0.57;;;;;;;9.16;76.41;96903.97;4994210;28;20031;-73
2021/12/01 13:46:46;;;;;;;0.63;0.63;;;;;;;9.12;76.83;96917.91;4993217;28;20046;-73
2021/12/01 13:49:12;;;;;;;0.50;0.50;;;;;;;9.15;76.48;96902.28;5001226;28;20030;-71
2021/12/01 13:51:49;;;;;;;0.50;0.50;;;;;;;9.08;76.91;96913.78;5024860;28;20032;-71
2021/12/01 13:54:24;;;;;;;1.25;0.82;;;;;;;9.02;76.99;96907.97;5033262;28;20029;-70
2021/12/01 13:57:03;;;;;;;0.88;0.88;;;;;;;9.02;77.42;96914.88;5033496;28;20033;-71
2021/12/01 13:59:50;;;;;;;0.40;0.40;;;;;;;9.04;77.35;96907.06;5028750;28;20457;-71
2021/12/01 14:02:30;;;;;;;0.40;0.40;;;;;;;9.00;78.02;96908.94;5024889;28;20445;-71
2021/12/01 14:04:59;;;;;;;0.40;0.40;;;;;;;8.98;77.83;96895.25;5015477;28;20029;-72
2021/12/01 14:07:26;;;;;;;0.40;0.40;;;;;;;8.97;77.45;96909.91;5033137;28;20021;-71
2021/12/01 14:09:55;;;;;;;0.40;0.40;;;;;;;8.94;77.66;96904.84;5032728;28;20021;-71
2021/12/01 14:12:25;;;;;;;;;;;;;;;8.96;78.42;96908.22;5033441;28;20088;-72
2021/12/01 14:14:51;;;;;;;0.50;0.50;;;;;;;8.91;78.47;96889.50;5032891;28;19909;-71
2021/12/01 14:17:18;;;;;;;0.50;0.50;;;;;;;8.92;78.93;96896.34;5032850;28;20040;-71
2021/12/01 14:19:43;;;;;;;0.45;0.45;;;;;;;8.87;79.45;96890.53;5024900;28;20031;-71
2021/12/01 14:22:17;;;;;;;0.50;0.50;;;;;;;8.84;79.07;96887.22;5006843;28;20385;-71
2021/12/01 14:24:55;;;;;;;1.10;1.10;;;;;;;8.79;79.70;96884.84;5032568;28;20029;-71
2021/12/01 14:27:31;;;;;;;0.43;0.43;;;;;;;8.76;80.06;96892.72;5032592;28;20036;-71
2021/12/01 14:29:59;;;;;;;0.47;0.47;;;;;;;8.76;79.29;96900.47;5027931;28;20433;-71
2021/12/01 14:32:26;;;;;;;0.43;0.43;;;;;;;8.77;79.06;96885.81;5024476;28;20057;-71
2021/12/01 14:34:53;;;;;;;0.75;0.75;;;;;;;8.76;79.67;96895.31;5032517;28;20488;-71
2021/12/01 14:37:18;;;;;;;0.40;0.40;;;;;;;8.73;79.31;96895.44;5032423;28;20116;-71
2021/12/01 14:39:44;;;;;;;0.40;0.40;;;;;;;8.72;78.99;96894.59;5032331;28;20018;-74
2021/12/01 14:42:11;;;;;;;0.82;0.82;;;;;;;8.74;78.61;96891.94;5032440;28;20540;-72
2021/12/01 14:44:39;;;;;;;0.50;0.50;;;;;;;8.74;78.78;96902.25;5032233;28;20030;-71
2021/12/01 14:47:11;;;;;;;0.50;0.50;;;;;;;8.73;79.06;96895.44;5032353;28;20434;-71
2021/12/01 14:49:45;;;;;;;0.50;0.50;;;;;;;8.69;79.39;96894.69;5032059;28;20033;-71
2021/12/01 14:52:23;;;;;;;0.82;0.73;;;;;;;8.68;79.13;96897.34;5032458;28;20104;-71
2021/12/01 14:55:04;;;;;;;0.40;0.40;;;;;;;8.63;80.13;96896.72;5032122;28;20052;-72
2021/12/01 14:57:32;;;;;;;0.40;0.40;;;;;;;8.61;79.94;96908.84;5032268;28;20029;-71
2021/12/01 15:00:00;;;;;;;0.65;0.65;;;;;;;8.61;80.24;96891.63;5027266;28;20025;-71
2021/12/01 15:02:28;;;;;;;0.90;0.90;;;;;;;8.57;80.84;96897.78;5024301;28;20072;-71
2021/12/01 15:05:18;;;;;;;0.40;0.40;;;;;;;8.55;80.85;96898.75;5032052;28;20021;-71
2021/12/01 15:07:43;;;;;;;0.40;0.40;;;;;;;8.48;81.56;96896.41;5032031;28;20029;-71
2021/12/01 15:10:15;;;;;;;0.30;0.30;;;;;;;8.48;81.07;96896.41;5031764;28;20025;-71
2021/12/01 15:13:05;;;;;;;0.45;0.45;;;;;;;8.41;81.84;96897.59;5031917;28;20025;-71
2021/12/01 15:15:36;;;;;;;0.40;0.40;;;;;;;8.35;82.20;96890.03;5016149;28;20508;-71
2021/12/01 15:18:26;;;;;;;0.50;0.50;;;;;;;8.32;82.96;96895.31;5031941;28;20516;-71
2021/12/01 15:20:51;;;;;;;0.30;0.30;;;;;;;8.31;81.85;96893.63;4981234;28;20490;-71
2021/12/01 15:23:17;;;;;;;0.43;0.43;;;;;;;8.31;82.38;96898.78;5031754;28;20033;-71
2021/12/01 15:25:42;;;;;;;2.00;0.93;;;;;;;8.25;82.72;96905.03;5032254;28;20021;-71
2021/12/01 15:28:10;;;;;;;1.35;1.23;;;;;;;8.22;83.53;96894.00;5031925;28;20055;-71
2021/12/01 15:30:41;;;;;;;0.50;0.50;;;;;;;8.28;82.23;96886.03;5023929;28;20028;-71
2021/12/01 15:33:11;;;;;;;0.40;0.40;;;;;;;8.23;82.91;96885.38;5027993;28;20052;-71
2021/12/01 15:35:36;;;;;;;0.43;0.43;;;;;;;8.29;82.75;96885.13;5014075;28;20025;-71
2021/12/01 15:38:03;;;;;;;0.40;0.40;;;;;;;8.31;82.75;96882.47;5031651;28;20075;-71
2021/12/01 15:40:29;;;;;;;0.50;0.50;;;;;;;8.36;82.55;96881.41;5031633;28;20029;-71
2021/12/01 15:42:54;;;;;;;0.65;0.65;;;;;;;8.34;82.67;96893.50;5031601;28;20026;-71
2021/12/01 15:45:21;;;;;;;0.60;0.60;;;;;;;8.37;82.03;96893.44;5031559;28;20390;-72
2021/12/01 15:47:46;;;;;;;0.30;0.30;;;;;;;8.36;82.41;96891.72;5031722;28;20021;-72
2021/12/01 15:50:13;;;;;;;0.40;0.40;;;;;;;8.31;82.94;96893.63;5031350;28;20437;-72
2021/12/01 15:52:38;;;;;;;0.40;0.40;;;;;;;8.33;81.97;96886.69;5031529;28;20433;-72
2021/12/01 15:55:04;;;;;;;0.35;0.35;;;;;;;8.35;82.30;96900.34;5031789;28;20017;-72
2021/12/01 15:57:30;;;;;;;0.40;0.40;;;;;;;8.38;81.66;96900.28;5031517;28;20736;-77
2021/12/01 15:59:56;;;;;;;0.50;0.50;;;;;;;8.33;82.41;96907.31;5027133;28;20501;-73
2021/12/01 16:02:21;;;;;;;0.40;0.40;;;;;;;8.34;81.92;96909.00;5023376;28;20113;-70
2021/12/01 16:04:47;;;;;;;0.50;0.50;;;;;;;8.32;81.81;96892.75;5031360;28;20037;-72
2021/12/01 16:07:12;;;;;;;0.40;0.40;;;;;;;8.32;81.16;96890.16;5031559;28;20028;-71
2021/12/01 16:09:38;;;;;;;0.30;0.30;;;;;;;8.35;81.14;96890.03;5031197;28;20100;-71
2021/12/01 16:12:04;;;;;;;0.50;0.50;;;;;;;8.29;81.18;96890.28;5035065;28;20029;-74
2021/12/01 16:14:30;;;;;;;0.60;0.60;;;;;;;8.25;81.45;96896.44;5035130;28;20534;-74
2021/12/01 16:16:55;;;;;;;0.40;0.40;;;;;;;8.28;80.65;96893.75;5035231;28;20064;-73
2021/12/01 16:19:21;;;;;;;0.60;0.60;;;;;;;8.35;80.51;96895.19;5034786;28;20018;-72
2021/12/01 16:21:48;;;;;;;0.52;0.52;;;;;;;8.29;80.40;96903.19;5035070;28;20581;-75
2021/12/01 16:24:14;;;;;;;0.70;0.68;;;;;;;8.27;81.08;96906.69;5035039;28;20025;-76
2021/12/01 16:26:39;;;;;;;0.60;0.60;;;;;;;8.23;80.02;96898.25;5034904;28;20121;-74
2021/12/01 16:29:05;;;;;;;0.43;0.43;;;;;;;8.29;81.03;96895.44;5031520;28;20033;-72
2021/12/01 16:31:31;;;;;;;0.40;0.40;;;;;;;8.18;80.97;96897.59;5025384;28;20084;-72
2021/12/01 16:33:57;;;;;;;0.82;0.82;;;;;;;8.18;81.43;96889.88;5034714;28;20021;-70
2021/12/01 16:36:25;;;;;;;0.73;0.73;;;;;;;8.20;80.99;96900.94;5034771;28;20765;-73
2021/12/01 16:38:51;;;;;;;0.68;0.68;;;;;;;8.22;81.25;96894.00;5034738;28;20383;-70
2021/12/01 16:41:17;;;;;;;0.45;0.45;;;;;;;8.27;80.64;96892.09;5034481;28;20029;-71
2021/12/01 16:43:44;;;;;;;3.13;1.17;;;;;;;8.28;80.50;96896.34;5034784;28;20037;-70
2021/12/01 16:46:09;;;;;;;0.40;0.40;;;;;;;8.27;80.62;96899.84;5034431;28;20048;-70
2021/12/01 16:48:35;;;;;;;0.50;0.50;;;;;;;8.20;80.39;96888.06;5034478;28;20071;-69
2021/12/01 16:51:02;;;;;;;0.47;0.47;;;;;;;8.23;80.44;96893.94;5034472;28;20052;-73
2021/12/01 16:53:27;;;;;;;0.40;0.40;;;;;;;8.24;80.17;96902.53;5034449;28;20083;-71
2021/12/01 16:55:53;;;;;;;0.40;0.40;;;;;;;8.24;80.28;96905.09;5016656;28;20025;-70
2021/12/01 16:58:18;;;;;;;1.20;1.10;;;;;;;8.24;80.02;96899.94;5034443;28;20056;-68
2021/12/01 17:00:46;;;;;;;2.38;1.05;;;;;;;8.22;80.28;96899.16;5025511;28;20049;-71
2021/12/01 17:06:08;;;;;;;0.50;0.50;;;;;;;8.25;79.20;96896.44;4996162;28;20127;-73
2021/12/01 17:08:45;;;;;;;;;;;;;;;8.23;78.52;96901.69;5034703;28;20108;-73
2021/12/01 17:11:11;;;;;;;0.80;0.80;;;;;;;8.22;79.33;96918.06;5033893;28;20452;-72
2021/12/01 17:13:37;;;;;;;0.40;0.40;;;;;;;8.26;78.21;96923.91;5034101;28;20172;-72
2021/12/01 17:16:03;;;;;;;0.80;0.80;;;;;;;8.21;78.11;96928.41;5034030;28;20129;-74
2021/12/01 17:18:32;;;;;;;0.40;0.40;;;;;;;8.28;78.34;96935.03;5034209;28;20030;-78
2021/12/01 17:20:59;;;;;;;0.98;0.52;;;;;;;8.22;77.49;96943.88;5033664;28;20450;-77
2021/12/01 17:23:29;;;;;;;0.43;0.43;;;;;;;8.22;77.82;96945.59;5033911;28;20031;-76
2021/12/01 17:25:57;;;;;;;0.45;0.45;;;;;;;8.21;77.75;96954.22;5033854;28;20086;-79
2021/12/01 17:28:23;;;;;;;0.40;0.40;;;;;;;8.28;76.77;96945.38;5034058;28;20029;-80
2021/12/01 17:30:55;;;;;;;1.25;0.50;;;;;;;8.22;77.62;96950.75;5062479;22;20288;-73
2021/12/01 17:33:21;;;;;;;1.08;0.65;;;;;;;8.20;76.96;96957.69;5053496;28;20039;-73
2021/12/01 17:35:50;;;;;;;1.20;1.08;;;;;;;8.20;77.09;96960.28;5053699;28;20029;-70
2021/12/01 17:38:15;;;;;;;0.40;0.40;;;;;;;8.24;76.04;96954.94;5053486;28;20547;-68
2021/12/01 17:40:40;;;;;;;0.40;0.40;;;;;;;8.25;76.17;96961.78;5053212;28;20033;-68
2021/12/01 17:43:06;;;;;;;0.50;0.50;;;;;;;8.23;76.43;96967.91;5053224;28;20100;-68
2021/12/01 17:45:31;;;;;;;0.45;0.45;;;;;;;8.28;75.62;96971.16;5052516;28;20055;-67
2021/12/01 17:47:57;;;;;;;0.40;0.40;;;;;;;8.23;76.43;96967.91;5053169;28;20032;-67
2021/12/01 17:50:23;;;;;;;0.30;0.30;;;;;;;8.23;74.79;96968.75;5053188;28;20025;-67
2021/12/01 17:52:50;;;;;;;0.75;0.75;;;;;;;8.22;75.33;96966.25;5053276;28;20115;-68
2021/12/01 17:55:18;;;;;;;0.40;0.40;;;;;;;8.27;74.59;96966.03;5053113;28;20095;-68
2021/12/01 17:57:46;;;;;;;0.40;0.40;;;;;;;8.23;75.15;96985.97;5053173;28;20108;-67
2021/12/01 18:00:19;;;;;;;2.28;1.00;;;;;;;8.22;74.88;96992.03;5048713;28;20024;-68
2021/12/01 18:02:46;;;;;;;0.57;0.57;;;;;;;8.16;75.38;96993.09;5038469;28;20048;-68
2021/12/01 18:05:14;;;;;;;0.40;0.40;;;;;;;8.17;76.08;96992.22;5053062;28;20025;-67
2021/12/01 18:07:39;;;;;;;0.52;0.50;;;;;;;8.25;75.83;96997.06;5051635;28;20033;-68
2021/12/01 18:10:05;;;;;;;0.40;0.40;;;;;;;8.13;75.67;96997.53;5052895;28;20028;-67
2021/12/01 18:12:31;;;;;;;0.35;0.35;;;;;;;8.12;75.52;97006.16;5053103;28;20051;-68
2021/12/01 18:14:57;;;;;;;0.40;0.40;;;;;;;8.14;75.53;97012.13;5052945;28;20470;-67